createdAt,value
2016-10-17T00:01:09.112Z,19.43
2016-10-17T00:06:09.057Z,19.43
2016-10-17T00:11:08.710Z,19.42
2016-10-17T00:16:08.651Z,19.43
2016-10-17T00:21:08.915Z,19.42
2016-10-17T00:26:08.866Z,19.43
2016-10-17T00:31:08.810Z,19.32
2016-10-17T00:36:08.756Z,19.25
2016-10-17T00:41:08.712Z,19.3
2016-10-17T00:46:08.354Z,19.35
2016-10-17T00:51:08.612Z,19.3
2016-10-17T00:56:07.950Z,19.35
2016-10-17T01:01:08.200Z,19.3
2016-10-17T01:06:08.478Z,19.3
2016-10-17T01:11:08.414Z,19.25
2016-10-17T01:16:08.059Z,19.27
2016-10-17T01:21:08.311Z,19.23
2016-10-17T01:26:08.258Z,19.24
2016-10-17T01:31:07.906Z,19.24
2016-10-17T01:36:08.167Z,19.25
2016-10-17T01:41:08.119Z,19.25
2016-10-17T01:46:08.060Z,19.2
2016-10-17T01:51:08.009Z,19.25
2016-10-17T01:56:07.956Z,19.2
2016-10-17T02:01:07.906Z,19.19
2016-10-17T02:06:07.862Z,19.24
2016-10-17T02:11:07.810Z,19.17
2016-10-17T02:16:07.455Z,19.23
2016-10-17T02:21:07.706Z,19.25
2016-10-17T02:26:07.671Z,19.17
2016-10-17T02:31:07.613Z,19.17
2016-10-17T02:36:07.562Z,19.17
2016-10-17T02:41:07.514Z,19.07
2016-10-17T02:46:07.459Z,19.16
2016-10-17T02:51:07.414Z,19.2
2016-10-17T02:56:07.356Z,19.15
2016-10-17T03:01:07.006Z,19.07
2016-10-17T03:06:06.957Z,19.05
2016-10-17T03:11:07.214Z,19.1
2016-10-17T03:16:06.858Z,18.97
2016-10-17T03:21:07.111Z,19.02
2016-10-17T03:26:06.757Z,18.99
2016-10-17T03:31:06.703Z,18.97
2016-10-17T03:36:06.664Z,18.99
2016-10-17T03:41:06.901Z,18.91
2016-10-17T03:46:06.856Z,18.96
2016-10-17T03:51:06.811Z,18.97
2016-10-17T03:56:06.755Z,18.97
2016-10-17T04:01:06.715Z,18.94
2016-10-17T04:06:06.666Z,18.89
2016-10-17T04:11:06.605Z,18.94
2016-10-17T04:16:06.557Z,18.87
2016-10-17T04:21:06.511Z,18.87
2016-10-17T04:26:06.143Z,18.89
2016-10-17T04:31:06.397Z,18.89
2016-10-17T04:36:06.351Z,18.82
2016-10-17T04:41:06.299Z,18.84
2016-10-17T04:46:06.258Z,18.86
2016-10-17T04:51:06.188Z,18.84
2016-10-17T04:56:05.832Z,18.84
2016-10-17T05:01:06.092Z,18.87
2016-10-17T05:06:06.036Z,18.81
2016-10-17T05:11:05.981Z,18.76
2016-10-17T05:16:05.937Z,18.86
2016-10-17T05:21:05.571Z,18.81
2016-10-17T05:26:05.823Z,18.78
2016-10-17T05:31:05.462Z,18.72
2016-10-17T05:36:05.718Z,18.81
2016-10-17T05:41:05.364Z,18.87
2016-10-17T05:46:05.314Z,18.75
2016-10-17T05:51:05.253Z,18.79
2016-10-17T05:56:05.504Z,18.78
2016-10-17T06:01:05.450Z,18.97
2016-10-17T06:06:05.401Z,19.05
2016-10-17T06:11:05.034Z,19.07
2016-10-17T06:16:04.679Z,19.19
2016-10-17T06:21:05.227Z,19.28
2016-10-17T06:26:05.195Z,19.24
2016-10-17T06:31:05.125Z,19.28
2016-10-17T06:36:05.074Z,19.27
2016-10-17T06:41:05.026Z,19.3
2016-10-17T06:46:04.972Z,19.25
2016-10-17T06:51:04.917Z,19.24
2016-10-17T06:56:04.872Z,19.32
2016-10-17T07:01:04.807Z,19.23
2016-10-17T07:06:04.756Z,19.23
2016-10-17T07:11:04.706Z,19.28
2016-10-17T07:16:04.656Z,19.28
2016-10-17T07:21:04.599Z,19.25
2016-10-17T07:26:04.548Z,19.25
2016-10-17T07:31:04.500Z,19.24
2016-10-17T07:36:04.138Z,19.28
2016-10-17T07:41:04.392Z,19.24
2016-10-17T07:46:04.343Z,19.24
2016-10-17T07:51:04.293Z,19.24
2016-10-17T07:56:04.246Z,19.2
2016-10-17T08:01:04.245Z,19.32
2016-10-17T08:06:04.141Z,19.28
2016-10-17T08:11:04.090Z,19.35
2016-10-17T08:16:04.040Z,19.42
2016-10-17T08:21:03.982Z,19.53
2016-10-17T08:26:03.942Z,19.67
2016-10-17T08:31:03.886Z,19.71
2016-10-17T08:36:03.841Z,19.78
2016-10-17T08:41:03.498Z,19.74
2016-10-17T08:46:03.740Z,19.7
2016-10-17T08:51:03.686Z,19.74
2016-10-17T08:56:03.335Z,19.72
2016-10-17T09:01:03.294Z,19.87
2016-10-17T09:06:03.255Z,19.86
2016-10-17T09:11:03.488Z,19.95
2016-10-17T09:16:03.452Z,20.04
2016-10-17T09:21:03.394Z,20.12
2016-10-17T09:26:03.346Z,20.12
2016-10-17T09:31:03.298Z,20.2
2016-10-17T09:36:02.947Z,20.3
2016-10-17T09:41:03.208Z,20.27
2016-10-17T09:46:03.153Z,20.34
2016-10-17T09:51:02.838Z,20.38
2016-10-17T09:56:03.072Z,20.42
2016-10-17T10:01:02.718Z,20.51
2016-10-17T10:06:02.970Z,20.44
2016-10-17T10:11:02.620Z,20.42
2016-10-17T10:16:02.570Z,20.51
2016-10-17T10:21:02.834Z,20.51
2016-10-17T10:26:02.794Z,20.42
2016-10-17T10:31:02.430Z,20.42
2016-10-17T10:36:02.079Z,20.49
2016-10-17T10:41:02.340Z,20.57
2016-10-17T10:46:02.594Z,20.56
2016-10-17T10:51:02.560Z,20.57
2016-10-17T10:56:02.506Z,20.56
2016-10-17T11:01:02.166Z,20.51
2016-10-17T11:06:02.123Z,20.44
2016-10-17T11:11:02.372Z,20.4
2016-10-17T11:16:02.021Z,20.35
2016-10-17T11:21:02.276Z,20.32
2016-10-17T11:26:01.927Z,20.34
2016-10-17T11:31:01.876Z,20.29
2016-10-17T11:36:02.142Z,20.34
2016-10-17T11:41:02.140Z,20.27
2016-10-17T11:46:01.749Z,20.34
2016-10-17T11:51:01.409Z,20.37
2016-10-17T11:56:01.656Z,20.23
2016-10-17T12:01:01.605Z,20.34
2016-10-17T12:06:01.876Z,20.26
2016-10-17T12:11:01.829Z,20.26
2016-10-17T12:16:01.166Z,20.26
2016-10-17T12:21:01.729Z,20.26
2016-10-17T12:26:01.688Z,20.19
2016-10-17T12:31:01.632Z,20.23
2016-10-17T12:36:01.586Z,20.19
2016-10-17T12:41:01.231Z,20.25
2016-10-17T12:46:01.496Z,20.48
2016-10-17T12:51:01.135Z,20.48
2016-10-17T12:56:01.102Z,20.3
2016-10-17T13:01:01.357Z,20.27
2016-10-17T13:06:01.308Z,20.18
2016-10-17T13:11:01.266Z,20.16
2016-10-17T13:16:00.907Z,20.15
2016-10-17T13:21:00.868Z,20.12
2016-10-17T13:26:01.117Z,20.2
2016-10-17T13:31:00.774Z,20.12
2016-10-17T13:36:01.014Z,20.23
2016-10-17T13:41:00.974Z,20.57
2016-10-17T13:46:00.922Z,20.29
2016-10-17T13:51:00.565Z,20.61
2016-10-17T13:56:00.217Z,20.48
2016-10-17T14:01:00.471Z,20.49
2016-10-17T14:06:00.762Z,20.44
2016-10-17T14:11:00.683Z,20.29
2016-10-17T14:16:00.060Z,20.3
2016-10-17T14:21:00.577Z,20.26
2016-10-17T14:26:00.532Z,20.27
2016-10-17T14:31:00.195Z,20.29
2016-10-17T14:36:00.421Z,20.29
2016-10-17T14:41:00.378Z,20.23
2016-10-17T14:46:00.337Z,20.11
2016-10-17T14:51:00.008Z,20.18
2016-10-17T14:55:59.921Z,20.08
2016-10-17T15:01:00.179Z,20.22
2016-10-17T15:05:59.820Z,20.15
2016-10-17T15:10:59.777Z,20.32
2016-10-17T15:16:00.050Z,20.26
2016-10-17T15:20:59.997Z,20.25
2016-10-17T15:25:59.985Z,20.22
2016-10-17T15:30:59.290Z,20.23
2016-10-17T15:35:59.886Z,20.3
2016-10-17T15:40:59.509Z,20.23
2016-10-17T15:45:59.457Z,20.23
2016-10-17T15:50:59.409Z,20.26
2016-10-17T15:55:59.054Z,20.26
2016-10-17T16:00:59.625Z,20.26
2016-10-17T16:05:59.574Z,20.25
2016-10-17T16:10:59.533Z,20.27
2016-10-17T16:15:59.184Z,20.3
2016-10-17T16:20:59.442Z,20.18
2016-10-17T16:25:59.394Z,20.15
2016-10-17T16:30:59.358Z,20.1
2016-10-17T16:35:59.327Z,19.97
2016-10-17T16:40:58.953Z,20.01
2016-10-17T16:45:59.228Z,19.97
2016-10-17T16:50:59.159Z,20.01
2016-10-17T16:55:58.815Z,19.95
2016-10-17T17:00:59.077Z,19.95
2016-10-17T17:05:59.027Z,20
2016-10-17T17:10:58.990Z,19.85
2016-10-17T17:15:58.952Z,19.9
2016-10-17T17:20:58.894Z,19.82
2016-10-17T17:25:58.890Z,19.87
2016-10-17T17:30:58.824Z,19.95
2016-10-17T17:35:58.456Z,19.9
2016-10-17T17:40:58.714Z,20.04
2016-10-17T17:45:58.355Z,19.95
2016-10-17T17:50:58.619Z,19.97
2016-10-17T17:55:58.313Z,20.08
2016-10-17T18:00:58.224Z,20.1
2016-10-17T18:05:57.855Z,19.95
2016-10-17T18:10:58.417Z,20.08
2016-10-17T18:15:58.095Z,20.05
2016-10-17T18:20:58.335Z,20
2016-10-17T18:25:58.280Z,20
2016-10-17T18:30:57.931Z,20
2016-10-17T18:35:58.200Z,19.98
2016-10-17T18:40:58.159Z,19.98
2016-10-17T18:45:58.094Z,19.98
2016-10-17T18:50:58.066Z,20
2016-10-17T18:55:57.696Z,19.95
2016-10-17T19:00:57.649Z,20.01
2016-10-17T19:05:57.611Z,20.02
2016-10-17T19:10:57.872Z,19.97
2016-10-17T19:15:57.521Z,19.97
2016-10-17T19:20:57.471Z,20
2016-10-17T19:25:57.756Z,20
2016-10-17T19:30:57.393Z,20
2016-10-17T19:35:57.630Z,19.98
2016-10-17T19:40:57.584Z,20.07
2016-10-17T19:45:57.241Z,20.04
2016-10-17T19:50:57.185Z,20.07
2016-10-17T19:55:57.145Z,20.11
2016-10-17T20:00:57.091Z,20.18
2016-10-17T20:05:57.364Z,20.11
2016-10-17T20:10:57.305Z,20.22
2016-10-17T20:15:56.952Z,20.12
2016-10-17T20:20:57.210Z,20.2
2016-10-17T20:25:57.178Z,20.08
2016-10-17T20:30:57.131Z,20.15
2016-10-17T20:35:57.077Z,20.1
2016-10-17T20:40:57.020Z,20.16
2016-10-17T20:45:56.675Z,20.16
2016-10-17T20:50:56.635Z,20.1
2016-10-17T20:55:56.580Z,20.15
2016-10-17T21:00:56.534Z,20.12
2016-10-17T21:05:56.831Z,20.18
2016-10-17T21:10:56.432Z,20.16
2016-10-17T21:15:56.705Z,20.05
2016-10-17T21:20:56.653Z,20.01
2016-10-17T21:25:56.296Z,19.95
2016-10-17T21:30:56.555Z,19.95
2016-10-17T21:35:56.200Z,19.98
2016-10-17T21:40:56.162Z,19.98
2016-10-17T21:45:56.105Z,19.87
2016-10-17T21:50:56.371Z,19.83
2016-10-17T21:55:56.323Z,19.82
2016-10-17T22:00:56.273Z,19.78
2016-10-17T22:05:55.615Z,19.71
2016-10-17T22:10:56.171Z,19.68
2016-10-17T22:15:56.123Z,19.56
2016-10-17T22:20:55.771Z,19.65
2016-10-17T22:25:56.064Z,19.55
2016-10-17T22:30:55.972Z,19.49
2016-10-17T22:35:55.622Z,19.46
2016-10-17T22:40:55.880Z,19.43
2016-10-17T22:45:55.829Z,19.47
2016-10-17T22:50:55.775Z,19.37
2016-10-17T22:55:55.732Z,19.32
2016-10-17T23:00:55.679Z,19.32
2016-10-17T23:05:55.324Z,19.32
2016-10-17T23:10:55.276Z,19.31
2016-10-17T23:15:55.530Z,19.3
2016-10-17T23:20:55.486Z,19.28
2016-10-17T23:25:55.438Z,19.3
2016-10-17T23:30:55.382Z,19.27
2016-10-17T23:35:55.038Z,19.23
2016-10-17T23:40:55.289Z,19.2
2016-10-17T23:45:55.248Z,19.2
2016-10-17T23:50:55.188Z,19.23
2016-10-17T23:55:55.182Z,19.19
